Flight Track Log - Related Links

Times and Time Zones

All times are in EDT time to prevent confusion due to time zone crossing. See the TRS81 flight status page for this flight to view local times or setup timezone preferences in your user account.

Time Position Orientation Groundspeed Altitude Reporting Facility
EDT Latitude Longitude Course Direction KTS MPH feet Rate Location/Type
Tue 01:41:28 PM 33.6333 -84.3833 90° East 179 206 2,500  Level Atlanta TRACON
Tue 01:42:28 PM 33.6333 -84.3000 90° East 241 277 3,800 1,700 Climbing Atlanta TRACON
Tue 01:43:28 PM 33.6333 -84.2167 90° East 273 314 5,900 2,173 Climbing Atlanta TRACON
Tue 01:44:35 PM 33.6356 -84.1136 88° East 308 354 8,400 2,156 Climbing Atlanta Center
Tue 01:45:36 PM 33.6817 -84.0364 54° Northeast 277 319 10,500 2,083 Climbing Atlanta Center
Tue 01:46:36 PM 33.7400 -83.9614 47° Northeast 294 338 12,600 1,750 Climbing Atlanta Center
Tue 01:47:36 PM 33.8067 -83.8764 47° Northeast 326 375 14,000 1,563 Climbing Atlanta Center
Tue 01:48:35 PM 33.8794 -83.7811 47° Northeast 359 413 15,700 1,765 Climbing Atlanta Center
Tue 01:49:35 PM 33.9522 -83.6781 50° Northeast 392 451 17,500 1,650 Climbing Atlanta Center
Tue 01:50:35 PM 34.0231 -83.5650 53° Northeast 412 474 19,000 1,450 Climbing Atlanta Center
Tue 01:51:35 PM 34.0975 -83.4467 53° Northeast 419 482 20,400 1,438 Climbing Atlanta Center
Tue 01:52:36 PM 34.1700 -83.3308 53° Northeast 431 496 21,900 1,400 Climbing Atlanta Center
Tue 01:53:35 PM 34.2444 -83.2094 53° Northeast 436 502 23,200 1,210 Climbing Atlanta Center
Tue 01:54:35 PM 34.3144 -83.0956 53° Northeast 446 513 24,300 1,050 Climbing Atlanta Center
Tue 01:55:35 PM 34.3928 -82.9664 54° Northeast 466 536 25,300 1,100 Climbing Atlanta Center
Tue 01:56:35 PM 34.4731 -82.8394 52° Northeast 481 554 26,500 1,041 Climbing Atlanta Center
Tue 01:57:36 PM 34.5592 -82.7069 52° Northeast 486 559 27,400 900 Climbing Atlanta Center
Tue 01:58:35 PM 34.6472 -82.5642 53° Northeast 486 559 28,300 1,008 Climbing Atlanta Center
Tue 01:59:35 PM 34.7311 -82.4289 53° Northeast 486 559 29,400 900 Climbing Atlanta Center
Tue 02:00:35 PM 34.8128 -82.2956 53° Northeast 486 559 30,100 793 Climbing Atlanta Center
Tue 02:01:36 PM 34.8964 -82.1597 53° Northeast 486 559 31,000 1,000 Climbing Atlanta Center
Tue 02:02:35 PM 34.9756 -82.0261 54° Northeast 486 559 32,100 958 Climbing Atlanta Center
Tue 02:03:35 PM 35.0547 -81.8897 55° Northeast 486 559 32,900 446 Climbing Atlanta Center
Tue 02:04:36 PM 35.1272 -81.7508 57° Northeast 486 559 33,000 50 Climbing Atlanta Center
Tue 02:05:35 PM 35.2019 -81.6089 57° Northeast 486 559 33,000  Level Atlanta Center
Tue 02:06:36 PM 35.2761 -81.4719 56° Northeast 486 559 33,000  Level Atlanta Center
Tue 02:07:35 PM 35.3464 -81.3322 58° Northeast 486 559 33,000  Level Atlanta Center
Tue 02:08:36 PM 35.4203 -81.1894 58° Northeast 486 559 33,000  Level Atlanta Center
Tue 02:09:36 PM 35.4939 -81.0442 58° Northeast 486 559 33,000  Level Atlanta Center
Tue 02:10:35 PM 35.5697 -80.9008 57° Northeast 493 567 33,000  Level Atlanta Center
Tue 02:11:35 PM 35.6433 -80.7628 57° Northeast 488 562 33,000  Level Atlanta Center
Tue 02:12:35 PM 35.7164 -80.6192 58° Northeast 488 562 33,000  Level Atlanta Center
Tue 02:13:35 PM 35.7817 -80.4908 58° Northeast 488 562 33,000  Level Atlanta Center
Tue 02:14:35 PM 35.8567 -80.3467 57° Northeast 495 570 33,000  Level Atlanta Center
Tue 02:16:54 PM 36.0306 -80.0097 57° Northeast 497 572 33,000  Level Washington Center
Tue 02:17:52 PM 36.0997 -79.8878 55° Northeast 487 560 33,000  Level Washington Center
Tue 02:18:52 PM 36.1889 -79.7253 56° Northeast 498 573 33,000  Level Washington Center
Tue 02:19:53 PM 36.2578 -79.6025 55° Northeast 498 573 33,000 -248 Level Washington Center
Tue 02:20:53 PM 36.3289 -79.4747 55° Northeast 498 573 32,500 -694 Descending Washington Center
Tue 02:21:54 PM 36.4239 -79.3039 55° Northeast 503 579 31,600 -857 Descending Washington Center
Tue 02:22:52 PM 36.5033 -79.1656 54° Northeast 503 579 30,800 -3,328 Descending Washington Center
Tue 02:23:53 PM 36.5758 -79.0397 54° Northeast 503 579 25,000 -1,934 Descending Washington Center
Tue 02:24:53 PM 36.6572 -78.8956 55° Northeast 498 573 26,900  Climbing Washington Center
Tue 02:25:54 PM 36.7278 -78.7561 58° Northeast 492 566 25,000 -942 Descending Washington Center
Tue 02:26:54 PM 36.8000 -78.6267 55° Northeast 469 540 25,000 -248 Level Washington Center
Tue 02:27:55 PM 36.8806 -78.4819 55° Northeast 464 534 24,500 -763 Descending Washington Center
Tue 02:28:52 PM 36.9506 -78.3547 55° Northeast 454 522 23,500 -763 Descending Washington Center
Tue 02:29:53 PM 37.0181 -78.2244 57° Northeast 449 517 23,000 -295 Descending Washington Center
Tue 02:30:54 PM 37.0786 -78.1197 54° Northeast 434 499 22,900 -252 Descending Washington Center
Tue 02:31:52 PM 37.1725 -78.0236 39° Northeast 421 484 22,500 -400 Descending Washington Center
Tue 02:32:54 PM 37.2742 -77.9461 31° Northeast 421 484 22,100 -250 Descending Washington Center
Tue 02:33:52 PM 37.3758 -77.8708 30° Northeast 421 484 22,000 -50 Descending Washington Center
Tue 02:34:53 PM 37.4753 -77.7925 32° Northeast 421 484 22,000  Level Washington Center
Tue 02:35:53 PM 37.5767 -77.7169 31° Northeast 421 484 22,000  Level Washington Center
Tue 02:36:53 PM 37.6761 -77.6383 32° Northeast 421 484 22,000 -496 Level Washington Center
Tue 02:37:54 PM 37.7756 -77.5622 31° Northeast 416 479 21,000 -1,714 Descending Washington Center
Tue 02:38:52 PM 37.8706 -77.4858 32° Northeast 410 472 18,600 -2,218 Descending Washington Center
Tue 02:39:53 PM 37.9633 -77.4144 31° Northeast 404 465 16,600 -2,182 Descending Washington Center
Tue 02:40:53 PM 38.0519 -77.3481 31° Northeast 389 448 14,200 -2,182 Descending Washington Center
Tue 02:41:54 PM 38.1364 -77.2786 33° Northeast 372 428 12,200 -1,636 Descending Washington Center
Tue 02:42:54 PM 38.2186 -77.2172 30° Northeast 359 413 10,900 -1,119 Descending Washington Center
Tue 02:43:52 PM 38.2903 -77.1578 33° Northeast 331 381 10,000 -454 Descending Washington Center
Tue 02:44:53 PM 38.3717 -77.1436 North 294 338 10,000  Level Washington Center
Tue 02:45:53 PM 38.4553 -77.1242 10° North 289 333 10,000  Level Washington Center
Tue 02:46:54 PM 38.5347 -77.1097 North 289 333 10,000  Level Washington Center
Tue 02:47:52 PM 38.6142 -77.0903 11° North 289 333 10,000 -403 Level Washington Center
Tue 02:48:53 PM 38.6958 -77.0733 North 289 333 9,200 -1,574 Descending Washington Center
Tue 02:49:54 PM 38.7708 -77.0800 356° North 284 327 6,800 -1,866 Descending Washington Center
Tue 02:50:52 PM 38.8347 -77.1267 330° Northwest 263 303 5,500 -1,707 Descending Washington Center
Tue 02:51:50 PM 38.9000 -77.2000 319° Northwest 266 306 3,500 -1,271 Descending Potomac TRACON
Tue 02:52:50 PM 38.9500 -77.2333 333° Northwest 274 315 3,000 -250 Descending Potomac TRACON
Tue 02:53:50 PM 38.9667 -77.1667 72° East 233 268 3,000 -400 Level Potomac TRACON
Tue 02:54:50 PM 38.9333 -77.1167 131° Southeast 187 215 2,200 -950 Descending Potomac TRACON
Tue 02:55:50 PM 38.9000 -77.0667 131° Southeast 158 182 1,100 -950 Descending Potomac TRACON
Tue 02:56:50 PM 38.8667 -77.0333 142° Southeast 144 166 300 -800 Descending Potomac TRACON
Tue 02:58:00 PM 38.8500 -77.0333 111° Southeast  Level FlightAware Approximate
Tue 03:05:00 PM 38.8519 -77.0377 111° Southeast  Level Estimated
Tue 03:06:00 PM 38.8500 -77.0333 111° Southeast  Level FlightAware Approximate
Tue 03:07:00 PM 38.8519 -77.0377 111° Southeast  Level Estimated

Login

Don't have an account? Register now (free) for customized features, flight alerts, and more!